createdAt,value
2023-03-27T00:01:16.660Z,7.40
2023-03-27T00:03:43.582Z,7.40
2023-03-27T00:06:18.038Z,7.40
2023-03-27T00:08:48.986Z,7.50
2023-03-27T00:11:17.041Z,7.50
2023-03-27T00:13:50.618Z,7.40
2023-03-27T00:16:19.454Z,7.30
2023-03-27T00:18:46.622Z,7.30
2023-03-27T00:21:13.622Z,7.30
2023-03-27T00:23:40.609Z,7.30
2023-03-27T00:26:07.551Z,7.30
2023-03-27T00:28:35.404Z,7.30
2023-03-27T00:31:02.497Z,7.30
2023-03-27T00:33:29.326Z,7.30
2023-03-27T00:35:56.133Z,7.30
2023-03-27T00:38:22.887Z,7.30
2023-03-27T00:40:50.722Z,7.30
2023-03-27T00:43:29.144Z,7.30
2023-03-27T00:46:01.273Z,7.30
2023-03-27T00:48:30.129Z,7.20
2023-03-27T00:50:58.406Z,7.30
2023-03-27T00:53:28.606Z,7.40
2023-03-27T00:55:59.010Z,7.40
2023-03-27T00:58:40.675Z,7.30
2023-03-27T01:01:08.839Z,7.30
2023-03-27T01:03:35.651Z,7.40
2023-03-27T01:06:03.647Z,7.20
2023-03-27T01:08:33.674Z,7.10
2023-03-27T01:11:08.730Z,7.10
2023-03-27T01:13:50.210Z,7.10
2023-03-27T01:16:24.235Z,7.10
2023-03-27T01:19:08.243Z,7.10
2023-03-27T01:21:53.464Z,7.00
2023-03-27T01:24:42.052Z,7.00
2023-03-27T01:27:39.803Z,7.00
2023-03-27T01:30:29.230Z,6.90
2023-03-27T01:33:10.901Z,6.90
2023-03-27T01:35:52.300Z,6.90
2023-03-27T01:39:07.295Z,6.80
2023-03-27T01:41:49.001Z,6.70
2023-03-27T01:44:22.757Z,6.60
2023-03-27T01:46:54.669Z,6.60
2023-03-27T01:49:26.549Z,6.60
2023-03-27T01:52:01.652Z,6.50
2023-03-27T01:54:35.036Z,6.40
2023-03-27T01:57:16.194Z,6.50
2023-03-27T01:59:46.044Z,6.40
2023-03-27T02:02:22.088Z,6.30
2023-03-27T02:05:17.977Z,6.40
2023-03-27T02:07:53.056Z,6.40
2023-03-27T02:10:25.856Z,6.30
2023-03-27T02:13:07.500Z,6.20
2023-03-27T02:15:37.737Z,6.20
2023-03-27T02:18:10.215Z,6.10
2023-03-27T02:20:39.319Z,6.10
2023-03-27T02:23:07.572Z,6.10
2023-03-27T02:25:44.399Z,6.10
2023-03-27T02:28:31.782Z,6.20
2023-03-27T02:31:46.810Z,6.10
2023-03-27T02:34:34.759Z,6.00
2023-03-27T02:37:08.302Z,5.90
2023-03-27T02:40:00.577Z,6.00
2023-03-27T02:42:41.726Z,6.10
2023-03-27T02:45:45.280Z,6.00
2023-03-27T02:48:19.769Z,5.90
2023-03-27T02:50:55.887Z,5.90
2023-03-27T02:53:25.481Z,5.90
2023-03-27T02:55:57.187Z,5.90
2023-03-27T02:58:39.791Z,5.90
2023-03-27T03:01:10.688Z,5.80
2023-03-27T03:03:48.907Z,5.80
2023-03-27T03:06:15.579Z,5.70
2023-03-27T03:08:42.691Z,5.70
2023-03-27T03:11:12.483Z,5.70
2023-03-27T03:13:39.346Z,5.70
2023-03-27T03:16:06.934Z,5.70
2023-03-27T03:18:33.631Z,5.80
2023-03-27T03:21:00.427Z,5.80
2023-03-27T03:23:27.680Z,5.70
2023-03-27T03:25:56.711Z,5.70
2023-03-27T03:28:26.012Z,5.70
2023-03-27T03:30:53.742Z,5.70
2023-03-27T03:33:21.194Z,5.60
2023-03-27T03:35:50.192Z,5.60
2023-03-27T03:38:26.181Z,5.50
2023-03-27T03:40:58.230Z,5.50
2023-03-27T03:43:27.225Z,5.50
2023-03-27T03:45:54.665Z,5.50
2023-03-27T03:48:22.968Z,5.50
2023-03-27T03:50:50.172Z,5.50
2023-03-27T03:53:19.417Z,5.60
2023-03-27T03:55:47.280Z,5.60
2023-03-27T03:58:13.933Z,5.60
2023-03-27T04:00:40.771Z,5.60
2023-03-27T04:03:09.394Z,5.50
2023-03-27T04:05:37.754Z,5.50
2023-03-27T04:08:08.513Z,5.40
2023-03-27T04:10:41.356Z,5.40
2023-03-27T04:13:08.047Z,5.40
2023-03-27T04:15:35.028Z,5.40
2023-03-27T04:18:01.956Z,5.30
2023-03-27T04:20:29.132Z,5.30
2023-03-27T04:22:55.897Z,5.30
2023-03-27T04:25:24.488Z,5.20
2023-03-27T04:27:51.723Z,5.10
2023-03-27T04:30:23.124Z,5.00
2023-03-27T04:32:51.087Z,4.90
2023-03-27T04:35:18.394Z,4.90
2023-03-27T04:37:46.382Z,4.80
2023-03-27T04:40:14.941Z,4.70
2023-03-27T04:42:43.890Z,4.80
2023-03-27T04:45:20.223Z,4.80
2023-03-27T04:47:48.929Z,4.70
2023-03-27T04:50:16.424Z,4.70
2023-03-27T04:52:43.209Z,4.70
2023-03-27T04:55:12.061Z,4.70
2023-03-27T04:57:39.660Z,4.70
2023-03-27T05:00:15.760Z,4.70
2023-03-27T05:02:42.898Z,4.70
2023-03-27T05:05:10.124Z,4.50
2023-03-27T05:07:37.723Z,4.70
2023-03-27T05:10:05.448Z,4.70
2023-03-27T05:12:32.952Z,4.70
2023-03-27T05:15:00.445Z,4.70
2023-03-27T05:17:27.144Z,4.70
2023-03-27T05:19:53.816Z,4.70
2023-03-27T05:22:20.468Z,4.70
2023-03-27T05:24:47.082Z,4.70
2023-03-27T05:27:15.178Z,4.70
2023-03-27T05:29:46.492Z,4.70
2023-03-27T05:32:14.553Z,4.70
2023-03-27T05:34:42.297Z,4.70
2023-03-27T05:37:09.146Z,4.70
2023-03-27T05:39:36.638Z,4.70
2023-03-27T05:42:03.627Z,4.70
2023-03-27T05:44:30.250Z,4.50
2023-03-27T05:46:56.855Z,4.50
2023-03-27T05:49:23.505Z,4.50
2023-03-27T05:51:50.892Z,4.40
2023-03-27T05:54:17.508Z,4.40
2023-03-27T05:56:44.229Z,4.40
2023-03-27T05:59:11.185Z,4.40
2023-03-27T06:01:39.733Z,4.50
2023-03-27T06:04:09.107Z,4.50
2023-03-27T06:06:41.555Z,4.60
2023-03-27T06:09:09.612Z,4.60
2023-03-27T06:11:36.271Z,4.50
2023-03-27T06:14:03.088Z,4.50
2023-03-27T06:16:29.738Z,4.50
2023-03-27T06:18:56.410Z,4.40
2023-03-27T06:21:23.374Z,4.40
2023-03-27T06:23:50.212Z,4.50
2023-03-27T06:26:16.984Z,4.40
2023-03-27T06:28:44.105Z,4.50
2023-03-27T06:31:11.934Z,4.50
2023-03-27T06:33:40.474Z,4.60
2023-03-27T06:36:08.454Z,4.60
2023-03-27T06:38:35.170Z,4.60
2023-03-27T06:41:02.034Z,4.60
2023-03-27T06:43:28.723Z,4.50
2023-03-27T06:45:55.478Z,4.50
2023-03-27T06:48:23.794Z,4.40
2023-03-27T06:50:52.319Z,4.30
2023-03-27T06:55:50.845Z,4.30
2023-03-27T06:58:18.798Z,4.30
2023-03-27T07:00:47.000Z,4.20
2023-03-27T07:03:14.243Z,4.30
2023-03-27T07:05:42.713Z,4.30
2023-03-27T07:08:22.585Z,4.30
2023-03-27T07:10:59.829Z,4.20
2023-03-27T07:13:37.382Z,4.10
2023-03-27T07:16:04.614Z,4.00
2023-03-27T07:18:31.456Z,4.00
2023-03-27T07:20:58.323Z,4.10
2023-03-27T07:23:25.311Z,4.10
2023-03-27T07:25:52.175Z,4.10
2023-03-27T07:28:19.331Z,4.10
2023-03-27T07:30:46.287Z,4.10
2023-03-27T07:33:13.192Z,4.10
2023-03-27T07:35:45.187Z,4.20
2023-03-27T07:38:12.332Z,4.20
2023-03-27T07:40:40.915Z,4.20
2023-03-27T07:43:07.810Z,4.10
2023-03-27T07:45:35.695Z,4.20
2023-03-27T07:48:12.043Z,4.30
2023-03-27T07:50:38.962Z,4.30
2023-03-27T07:53:08.947Z,4.40
2023-03-27T07:55:37.725Z,4.40
2023-03-27T07:58:06.872Z,4.40
2023-03-27T08:00:38.739Z,4.50
2023-03-27T08:03:11.419Z,4.40
2023-03-27T08:05:38.381Z,4.50
2023-03-27T08:08:05.164Z,4.50
2023-03-27T08:10:32.047Z,4.60
2023-03-27T08:12:58.675Z,4.60
2023-03-27T08:15:25.540Z,4.70
2023-03-27T08:17:54.627Z,4.70
2023-03-27T08:20:23.312Z,4.70
2023-03-27T08:22:53.265Z,4.80
2023-03-27T08:25:22.376Z,4.80
2023-03-27T08:27:49.456Z,4.60
2023-03-27T08:30:17.204Z,4.50
2023-03-27T08:32:44.475Z,4.60
2023-03-27T08:35:12.025Z,4.80
2023-03-27T08:37:38.735Z,4.80
2023-03-27T08:40:13.110Z,4.90
2023-03-27T08:42:42.743Z,5.00
2023-03-27T08:45:20.179Z,5.00
2023-03-27T08:48:22.204Z,4.90
2023-03-27T08:51:18.144Z,5.10
2023-03-27T08:54:02.601Z,5.30
2023-03-27T08:56:29.794Z,5.30
2023-03-27T08:58:56.623Z,5.40
2023-03-27T09:01:41.119Z,5.30
2023-03-27T09:04:43.880Z,5.20
2023-03-27T09:07:37.487Z,5.30
2023-03-27T09:10:22.913Z,5.20
2023-03-27T09:13:16.618Z,5.10
2023-03-27T09:15:49.451Z,5.10
2023-03-27T09:18:22.738Z,5.30
2023-03-27T09:20:57.028Z,5.30
2023-03-27T09:23:45.354Z,5.30
2023-03-27T09:26:20.057Z,5.20
2023-03-27T09:28:51.511Z,5.20
2023-03-27T09:31:34.328Z,5.30
2023-03-27T09:34:05.133Z,5.30
2023-03-27T09:36:32.005Z,5.50
2023-03-27T09:39:05.776Z,5.60
2023-03-27T09:41:44.340Z,5.70
2023-03-27T09:44:20.768Z,5.70
2023-03-27T09:46:51.547Z,5.70
2023-03-27T09:49:19.867Z,5.70
2023-03-27T09:51:54.520Z,5.40
2023-03-27T09:54:23.706Z,5.30
2023-03-27T09:56:52.021Z,5.30
2023-03-27T09:59:29.459Z,5.30
2023-03-27T10:02:08.083Z,5.40
2023-03-27T10:04:35.622Z,5.70
2023-03-27T10:07:10.142Z,5.50
2023-03-27T10:09:39.106Z,5.40
2023-03-27T10:12:07.159Z,5.30
2023-03-27T10:14:40.778Z,5.30
2023-03-27T10:17:30.186Z,5.40
2023-03-27T10:20:08.980Z,5.50
2023-03-27T10:22:38.639Z,5.50
2023-03-27T10:25:17.276Z,5.60
2023-03-27T10:27:44.054Z,5.50
2023-03-27T10:30:33.702Z,5.50
2023-03-27T10:33:00.490Z,5.20
2023-03-27T10:35:37.022Z,5.10
2023-03-27T10:38:10.470Z,5.20
2023-03-27T10:40:39.180Z,5.30
2023-03-27T10:43:12.854Z,5.40
2023-03-27T10:46:17.316Z,5.50
2023-03-27T10:49:02.703Z,5.50
2023-03-27T10:51:52.720Z,5.40
2023-03-27T10:54:25.827Z,5.60
2023-03-27T10:57:09.857Z,5.70
2023-03-27T10:59:51.523Z,5.80
2023-03-27T11:02:24.021Z,5.80
2023-03-27T11:04:58.914Z,5.90
2023-03-27T11:07:37.629Z,5.90
2023-03-27T11:10:14.009Z,5.80
2023-03-27T11:12:42.766Z,5.70
2023-03-27T11:15:19.735Z,5.50
2023-03-27T11:18:00.599Z,5.40
2023-03-27T11:20:56.911Z,5.30
2023-03-27T11:23:42.294Z,5.20
2023-03-27T11:26:15.564Z,5.20
2023-03-27T11:29:17.438Z,5.30
2023-03-27T11:31:51.001Z,5.40
2023-03-27T11:34:29.831Z,5.50
2023-03-27T11:37:00.747Z,5.70
2023-03-27T11:39:59.494Z,5.80
2023-03-27T11:42:35.992Z,5.80
2023-03-27T11:45:07.227Z,5.90
2023-03-27T11:47:52.081Z,6.00
2023-03-27T11:50:56.509Z,6.00
2023-03-27T11:53:50.824Z,6.10
2023-03-27T11:56:17.487Z,6.00
2023-03-27T11:58:50.278Z,5.90
2023-03-27T12:01:45.591Z,5.90
2023-03-27T12:04:15.484Z,6.10
2023-03-27T12:06:53.927Z,6.20
2023-03-27T12:09:42.603Z,6.30
2023-03-27T12:12:33.959Z,6.30
2023-03-27T12:15:18.576Z,6.20
2023-03-27T12:17:58.026Z,6.20
2023-03-27T12:20:38.356Z,6.20
2023-03-27T12:23:52.202Z,6.10
2023-03-27T12:26:18.858Z,5.60
2023-03-27T12:28:51.925Z,5.30
2023-03-27T12:31:35.532Z,5.10
2023-03-27T12:34:14.155Z,4.80
2023-03-27T12:36:45.632Z,4.70
2023-03-27T12:39:18.746Z,4.60
2023-03-27T12:41:45.563Z,4.40
2023-03-27T12:44:14.255Z,4.40
2023-03-27T12:46:42.293Z,4.60
2023-03-27T12:49:10.731Z,4.80
2023-03-27T12:52:08.052Z,5.10
2023-03-27T12:54:40.964Z,5.40
2023-03-27T12:57:22.348Z,5.60
2023-03-27T12:59:51.194Z,5.30
2023-03-27T13:02:41.570Z,5.00
2023-03-27T13:05:36.194Z,4.70
2023-03-27T13:08:29.951Z,4.00
2023-03-27T13:11:27.407Z,3.70
2023-03-27T13:14:26.000Z,3.60
2023-03-27T13:17:07.584Z,3.70
2023-03-27T13:19:45.457Z,3.50
2023-03-27T13:22:45.376Z,3.30
2023-03-27T13:25:33.106Z,3.20
2023-03-27T13:28:31.318Z,3.20
2023-03-27T13:31:00.105Z,3.30
2023-03-27T13:33:29.992Z,3.50
2023-03-27T13:36:00.145Z,3.50
2023-03-27T13:38:51.932Z,3.60
2023-03-27T13:41:40.753Z,3.80
2023-03-27T13:44:14.209Z,4.00
2023-03-27T13:46:47.804Z,4.20
2023-03-27T13:49:30.668Z,4.30
2023-03-27T13:52:27.001Z,4.40
2023-03-27T13:55:14.492Z,4.40
2023-03-27T13:58:06.653Z,4.70
2023-03-27T14:01:13.327Z,5.00
2023-03-27T14:04:02.592Z,5.30
2023-03-27T14:07:10.593Z,5.50
2023-03-27T14:10:09.691Z,5.60
2023-03-27T14:12:53.310Z,5.80
2023-03-27T14:15:49.190Z,5.70
2023-03-27T14:18:41.910Z,5.70
2023-03-27T14:21:24.456Z,5.60
2023-03-27T14:24:18.454Z,5.40
2023-03-27T14:26:45.885Z,5.40
2023-03-27T14:29:15.381Z,5.70
2023-03-27T14:31:44.143Z,6.00
2023-03-27T14:34:12.205Z,6.20
2023-03-27T14:36:42.271Z,6.50
2023-03-27T14:39:16.659Z,6.70
2023-03-27T14:41:47.267Z,6.80
2023-03-27T14:44:13.962Z,6.60
2023-03-27T14:46:45.000Z,6.50
2023-03-27T14:49:14.954Z,6.50
2023-03-27T14:51:47.505Z,6.50
2023-03-27T14:54:39.150Z,6.70
2023-03-27T14:57:20.729Z,7.00
2023-03-27T14:59:47.514Z,7.10
2023-03-27T15:02:21.544Z,7.20
2023-03-27T15:04:48.510Z,7.30
2023-03-27T15:07:21.095Z,7.30
2023-03-27T15:10:03.451Z,7.60
2023-03-27T15:12:30.219Z,7.90
2023-03-27T15:14:59.394Z,8.10
2023-03-27T15:17:30.432Z,8.20
2023-03-27T15:20:10.236Z,8.30
2023-03-27T15:22:43.119Z,8.40
2023-03-27T15:25:30.834Z,8.40
2023-03-27T15:28:00.034Z,8.30
2023-03-27T15:30:40.404Z,7.90
2023-03-27T15:33:15.723Z,7.70
2023-03-27T15:35:45.707Z,7.70
2023-03-27T15:38:15.682Z,7.90
2023-03-27T15:40:44.222Z,8.30
2023-03-27T15:43:14.022Z,8.60
2023-03-27T15:45:45.090Z,8.70
2023-03-27T15:48:33.394Z,8.50
2023-03-27T15:51:02.693Z,8.30
2023-03-27T15:53:41.053Z,7.90
2023-03-27T15:56:20.717Z,7.60
2023-03-27T15:58:51.867Z,7.60
2023-03-27T16:01:31.482Z,7.80
2023-03-27T16:04:05.156Z,8.00
2023-03-27T16:06:36.576Z,8.40
2023-03-27T16:09:05.884Z,8.80
2023-03-27T16:11:41.799Z,8.20
2023-03-27T16:14:31.811Z,7.80
2023-03-27T16:17:15.275Z,8.00
2023-03-27T16:19:48.904Z,8.40
2023-03-27T16:22:24.634Z,8.90
2023-03-27T16:24:52.237Z,9.50
2023-03-27T16:27:22.885Z,9.80
2023-03-27T16:29:51.011Z,10.00
2023-03-27T16:32:19.892Z,10.00
2023-03-27T16:34:51.413Z,10.10
2023-03-27T16:37:23.848Z,10.40
2023-03-27T16:39:50.623Z,10.50
2023-03-27T16:42:19.589Z,10.80
2023-03-27T16:44:46.579Z,10.70
2023-03-27T16:47:14.431Z,10.60
2023-03-27T16:49:41.964Z,10.40
2023-03-27T16:52:09.344Z,10.00
2023-03-27T16:54:36.514Z,9.60
2023-03-27T16:57:03.654Z,9.40
2023-03-27T16:59:30.351Z,9.30
2023-03-27T17:01:56.944Z,9.40
2023-03-27T17:04:23.720Z,9.40
2023-03-27T17:06:50.652Z,9.30
2023-03-27T17:09:17.411Z,9.10
2023-03-27T17:11:44.251Z,8.80
2023-03-27T17:14:11.097Z,8.60
2023-03-27T17:16:38.358Z,8.40
2023-03-27T17:19:05.664Z,8.20
2023-03-27T17:21:32.311Z,8.00
2023-03-27T17:23:59.745Z,7.70
2023-03-27T17:26:34.168Z,7.50
2023-03-27T17:29:03.304Z,7.40
2023-03-27T17:31:30.992Z,7.30
2023-03-27T17:33:58.125Z,7.20
2023-03-27T17:36:39.803Z,7.20
2023-03-27T17:39:10.209Z,7.10
2023-03-27T17:41:36.906Z,7.00
2023-03-27T17:44:05.649Z,7.00
2023-03-27T17:46:34.168Z,6.90
2023-03-27T17:49:01.264Z,6.80
2023-03-27T17:51:27.901Z,6.80
2023-03-27T17:53:54.594Z,6.80
2023-03-27T17:56:21.458Z,6.80
2023-03-27T17:58:49.049Z,6.80
2023-03-27T18:01:21.535Z,6.70
2023-03-27T18:03:49.392Z,6.70
2023-03-27T18:06:18.023Z,6.60
2023-03-27T18:08:46.200Z,6.60
2023-03-27T18:11:15.891Z,6.50
2023-03-27T18:13:51.248Z,6.40
2023-03-27T18:16:19.418Z,6.40
2023-03-27T18:18:47.378Z,6.30
2023-03-27T18:21:16.153Z,6.20
2023-03-27T18:23:46.394Z,6.20
2023-03-27T18:26:14.486Z,6.10
2023-03-27T18:28:41.139Z,6.00
2023-03-27T18:31:10.598Z,5.90
2023-03-27T18:33:38.219Z,5.70
2023-03-27T18:36:15.296Z,5.50
2023-03-27T18:38:42.360Z,5.20
2023-03-27T18:41:10.200Z,5.20
2023-03-27T18:43:37.362Z,5.10
2023-03-27T18:46:06.106Z,5.00
2023-03-27T18:48:33.717Z,4.90
2023-03-27T18:51:03.283Z,4.90
2023-03-27T18:53:30.302Z,4.90
2023-03-27T18:56:00.618Z,4.90
2023-03-27T18:58:29.105Z,5.00
2023-03-27T19:00:56.723Z,4.90
2023-03-27T19:03:25.649Z,4.90
2023-03-27T19:05:54.693Z,4.80
2023-03-27T19:08:22.079Z,4.90
2023-03-27T19:10:49.158Z,4.90
2023-03-27T19:13:15.975Z,5.00
2023-03-27T19:15:45.812Z,5.00
2023-03-27T19:18:13.024Z,5.00
2023-03-27T19:20:39.783Z,5.00
2023-03-27T19:23:06.732Z,5.00
2023-03-27T19:25:34.013Z,5.00
2023-03-27T19:28:02.117Z,5.00
2023-03-27T19:30:29.256Z,5.00
2023-03-27T19:32:58.192Z,4.90
2023-03-27T19:35:26.547Z,4.90
2023-03-27T19:37:54.200Z,5.00
2023-03-27T19:40:21.147Z,4.90
2023-03-27T19:42:48.235Z,4.90
2023-03-27T19:45:15.634Z,4.90
2023-03-27T19:47:42.513Z,4.90
2023-03-27T19:50:09.661Z,4.80
2023-03-27T19:52:36.435Z,4.80
2023-03-27T19:55:03.926Z,4.80
2023-03-27T19:57:30.892Z,4.80
2023-03-27T19:59:57.609Z,4.80
2023-03-27T20:02:24.255Z,4.70
2023-03-27T20:04:50.913Z,4.70
2023-03-27T20:07:17.573Z,4.70
2023-03-27T20:09:44.325Z,4.60
2023-03-27T20:12:12.268Z,4.70
2023-03-27T20:14:38.927Z,4.60
2023-03-27T20:17:12.247Z,4.60
2023-03-27T20:19:48.725Z,4.60
2023-03-27T20:22:18.388Z,4.60
2023-03-27T20:24:45.132Z,4.50
2023-03-27T20:27:12.120Z,4.30
2023-03-27T20:29:38.818Z,4.10
2023-03-27T20:32:07.603Z,4.10
2023-03-27T20:34:35.581Z,4.00
2023-03-27T20:37:03.606Z,3.90
2023-03-27T20:39:33.395Z,3.90
2023-03-27T20:42:00.254Z,3.90
2023-03-27T20:44:35.074Z,3.80
2023-03-27T20:47:11.026Z,3.80
2023-03-27T20:49:45.133Z,3.70
2023-03-27T20:52:14.466Z,3.70
2023-03-27T20:54:41.629Z,3.60
2023-03-27T20:57:08.612Z,3.60
2023-03-27T20:59:35.367Z,3.40
2023-03-27T21:02:03.383Z,3.40
2023-03-27T21:04:31.615Z,3.40
2023-03-27T21:06:58.967Z,3.30
2023-03-27T21:09:30.259Z,3.40
2023-03-27T21:11:56.961Z,3.40
2023-03-27T21:14:23.899Z,3.50
2023-03-27T21:16:50.810Z,3.60
2023-03-27T21:19:17.806Z,3.60
2023-03-27T21:21:44.738Z,3.60
2023-03-27T21:24:11.563Z,3.60
2023-03-27T21:26:38.273Z,3.60
2023-03-27T21:29:04.988Z,3.60
2023-03-27T21:31:31.828Z,3.70
2023-03-27T21:33:58.568Z,3.70
2023-03-27T21:36:27.988Z,3.70
2023-03-27T21:38:56.441Z,3.70
2023-03-27T21:41:23.739Z,3.70
2023-03-27T21:43:50.608Z,3.60
2023-03-27T21:46:17.453Z,3.60
2023-03-27T21:48:48.943Z,3.60
2023-03-27T21:51:15.763Z,3.60
2023-03-27T21:53:42.606Z,3.60
2023-03-27T21:56:12.581Z,3.60
2023-03-27T21:58:39.547Z,3.60
2023-03-27T22:01:06.745Z,3.60
2023-03-27T22:03:33.405Z,3.50
2023-03-27T22:06:12.214Z,3.50
2023-03-27T22:08:41.261Z,3.50
2023-03-27T22:11:08.316Z,3.50
2023-03-27T22:13:38.734Z,3.40
2023-03-27T22:16:11.966Z,3.30
2023-03-27T22:18:39.113Z,3.40
2023-03-27T22:21:16.515Z,3.40
2023-03-27T22:23:43.988Z,3.30
2023-03-27T22:26:11.706Z,3.30
2023-03-27T22:28:38.427Z,3.30
2023-03-27T22:31:05.492Z,3.20
2023-03-27T22:33:32.208Z,3.20
2023-03-27T22:35:59.235Z,3.20
2023-03-27T22:38:29.682Z,3.20
2023-03-27T22:40:56.540Z,3.20
2023-03-27T22:43:23.486Z,3.20
2023-03-27T22:45:53.158Z,3.20
2023-03-27T22:48:20.679Z,3.20
2023-03-27T22:50:55.459Z,3.20
2023-03-27T22:53:22.825Z,3.10
2023-03-27T22:55:50.538Z,3.10
2023-03-27T22:58:17.940Z,3.10
2023-03-27T23:00:49.461Z,3.10
2023-03-27T23:03:16.735Z,3.20
2023-03-27T23:05:46.700Z,3.10
2023-03-27T23:08:13.833Z,3.00
2023-03-27T23:10:40.607Z,3.00
2023-03-27T23:13:08.891Z,2.90
2023-03-27T23:15:36.573Z,2.90
2023-03-27T23:18:04.041Z,2.90
2023-03-27T23:20:31.194Z,2.80
2023-03-27T23:22:57.925Z,2.80
2023-03-27T23:25:25.200Z,2.80
2023-03-27T23:27:51.840Z,2.70
2023-03-27T23:30:18.511Z,2.70
2023-03-27T23:32:45.411Z,2.60
2023-03-27T23:35:12.309Z,2.60
2023-03-27T23:37:38.974Z,2.50
2023-03-27T23:40:06.373Z,2.50
2023-03-27T23:42:32.990Z,2.50
2023-03-27T23:44:59.752Z,2.40
2023-03-27T23:47:26.394Z,2.40
2023-03-27T23:49:53.030Z,2.40
2023-03-27T23:52:19.712Z,2.40
2023-03-27T23:54:46.510Z,2.40
2023-03-27T23:57:13.166Z,2.30
2023-03-27T23:59:39.869Z,2.40
